Time;durP1;ratioP1;P1;durP2;ratioP2;P2;SDS_P1;SDS_P2;PMS_P1;PMS_P2;Temp;Humidity;BMP_temperature;BMP_pressure;BME280_temperature;BME280_humidity;BME280_pressure;Samples;Min_cycle;Max_cycle;Signal;HPM_P1;HPM_P2
2023/02/03 00:01:59;;;;;;;;;;;21.70;52.60;;;;;;1530102;76;1438;-67
2023/02/03 00:04:01;;;;;;;;;;;21.60;52.60;;;;;;1538927;76;721;-68
2023/02/03 00:06:03;;;;;;;;;;;21.70;52.70;;;;;;1549680;75;1928;-66
2023/02/03 00:08:05;;;;;;;;;;;21.60;52.60;;;;;;1550409;76;1150;-66
2023/02/03 00:10:07;;;;;;;;;;;21.60;52.60;;;;;;1543653;75;813;-66
2023/02/03 00:12:09;;;;;;;;;;;21.60;52.70;;;;;;1541356;76;934;-66
2023/02/03 00:14:10;;;;;;;;;;;21.60;52.70;;;;;;1543929;76;719;-66
2023/02/03 00:16:12;;;;;;;;;;;21.60;52.80;;;;;;1550452;76;716;-66
2023/02/03 00:18:14;;;;;;;;;;;21.60;52.80;;;;;;1537230;76;1094;-67
2023/02/03 00:20:16;;;;;;;;;;;21.60;52.90;;;;;;1535942;76;796;-67
2023/02/03 00:22:18;;;;;;;;;;;21.60;52.70;;;;;;1533417;76;748;-67
2023/02/03 00:24:22;;;;;;;;;;;21.60;52.70;;;;;;1542172;76;717;-68
2023/02/03 00:26:24;;;;;;;;;;;21.60;52.90;;;;;;1528209;76;1976;-68
2023/02/03 00:28:30;;;;;;;;;;;21.60;52.80;;;;;;1538079;76;772;-67
2023/02/03 00:30:34;;;;;;;;;;;21.60;52.60;;;;;;1539704;76;1161;-68
2023/02/03 00:32:36;;;;;;;;;;;21.60;52.60;;;;;;1545653;76;685;-69
2023/02/03 00:34:38;;;;;;;;;;;21.60;52.60;;;;;;1544905;76;764;-68
2023/02/03 00:37:00;;;;;;;;;;;21.60;52.70;;;;;;1526968;76;1148;-70
2023/02/03 00:38:49;;;;;;;;;;;21.60;52.70;;;;;;1535917;75;227005;-63
2023/02/03 00:40:54;;;;;;;;;;;21.50;52.80;;;;;;1549480;76;1280;-62
2023/02/03 00:42:56;;;;;;;;;;;21.60;52.80;;;;;;1543295;77;808;-60
2023/02/03 00:44:57;;;;;;;;;;;21.60;52.80;;;;;;1527621;76;775;-60
2023/02/03 00:46:59;;;;;;;;;;;21.60;52.70;;;;;;1525680;77;1944;-61
2023/02/03 00:49:02;;;;;;;;;;;21.60;52.70;;;;;;1539382;77;787;-60
2023/02/03 00:51:04;;;;;;;;;;;21.60;52.70;;;;;;1526275;76;1099;-61
2023/02/03 00:53:06;;;;;;;;;;;21.50;52.80;;;;;;1541874;77;736;-61
2023/02/03 00:55:08;;;;;;;;;;;21.50;52.80;;;;;;1543969;76;782;-62
2023/02/03 00:57:10;;;;;;;;;;;21.60;52.70;;;;;;1540908;76;747;-61
2023/02/03 00:59:12;;;;;;;;;;;21.60;52.60;;;;;;1539303;77;1632;-61
2023/02/03 01:01:14;;;;;;;;;;;21.60;52.60;;;;;;1534046;76;1260;-60
2023/02/03 01:03:16;;;;;;;;;;;21.60;52.60;;;;;;1524139;76;722;-60
2023/02/03 01:05:18;;;;;;;;;;;21.60;52.60;;;;;;1533920;77;1935;-61
2023/02/03 01:07:19;;;;;;;;;;;21.60;52.60;;;;;;1538514;77;775;-60
2023/02/03 01:09:21;;;;;;;;;;;21.60;52.80;;;;;;1538532;76;1152;-60
2023/02/03 01:11:24;;;;;;;;;;;21.60;52.60;;;;;;1547722;76;778;-60
2023/02/03 01:13:26;;;;;;;;;;;21.60;52.60;;;;;;1534489;77;753;-62
2023/02/03 01:15:28;;;;;;;;;;;21.50;52.60;;;;;;1537879;77;946;-62
2023/02/03 01:17:29;;;;;;;;;;;21.50;52.70;;;;;;1526371;76;826;-64
2023/02/03 01:19:31;;;;;;;;;;;21.50;52.80;;;;;;1523892;77;1114;-61
2023/02/03 01:21:35;;;;;;;;;;;21.50;52.60;;;;;;1531290;77;757;-61
2023/02/03 01:23:37;;;;;;;;;;;21.60;52.60;;;;;;1539567;75;814;-64
2023/02/03 01:25:38;;;;;;;;;;;21.50;52.60;;;;;;1531031;76;1939;-60
2023/02/03 01:27:40;;;;;;;;;;;21.50;52.60;;;;;;1528969;76;717;-60
2023/02/03 01:29:42;;;;;;;;;;;21.60;52.60;;;;;;1530199;77;1146;-61
2023/02/03 01:31:44;;;;;;;;;;;21.60;52.60;;;;;;1539001;76;728;-61
2023/02/03 01:33:47;;;;;;;;;;;21.60;52.60;;;;;;1525760;77;717;-60
2023/02/03 01:35:49;;;;;;;;;;;21.50;52.40;;;;;;1535244;77;744;-60
2023/02/03 01:37:51;;;;;;;;;;;21.60;52.60;;;;;;1533032;76;770;-62
2023/02/03 01:39:52;;;;;;;;;;;21.50;52.50;;;;;;1540565;76;1244;-61
2023/02/03 01:41:55;;;;;;;;;;;21.50;52.50;;;;;;1548420;76;814;-62
2023/02/03 01:43:57;;;;;;;;;;;21.60;52.50;;;;;;1529410;76;742;-59
2023/02/03 01:45:59;;;;;;;;;;;21.60;52.50;;;;;;1537950;76;1943;-60
2023/02/03 01:48:01;;;;;;;;;;;21.50;52.50;;;;;;1542696;77;739;-60
2023/02/03 01:50:19;;;;;;;;;;;21.60;52.50;;;;;;1539077;76;1093;-62
2023/02/03 01:52:21;;;;;;;;;;;21.50;52.60;;;;;;1535193;76;746;-60
2023/02/03 01:54:25;;;;;;;;;;;21.40;52.60;;;;;;1528377;76;1558;-61
2023/02/03 01:56:27;;;;;;;;;;;21.50;52.70;;;;;;1533168;76;725;-60
2023/02/03 01:58:30;;;;;;;;;;;21.50;52.70;;;;;;1534011;77;704;-60
2023/02/03 02:00:32;;;;;;;;;;;21.50;52.80;;;;;;1523208;77;1133;-62
2023/02/03 02:02:34;;;;;;;;;;;21.40;52.60;;;;;;1542656;76;733;-60
2023/02/03 02:04:50;;;;;;;;;;;21.50;52.80;;;;;;1534590;77;769;-61
2023/02/03 02:06:52;;;;;;;;;;;21.50;52.80;;;;;;1528482;76;1939;-62
2023/02/03 02:08:53;;;;;;;;;;;21.40;52.70;;;;;;1539538;76;1511;-61
2023/02/03 02:10:55;;;;;;;;;;;21.50;52.90;;;;;;1539145;76;1170;-62
2023/02/03 02:12:57;;;;;;;;;;;21.40;52.80;;;;;;1546409;76;729;-62
2023/02/03 02:14:59;;;;;;;;;;;21.40;52.80;;;;;;1529175;76;763;-61
2023/02/03 02:17:06;;;;;;;;;;;21.50;52.80;;;;;;1530742;76;719;-61
2023/02/03 02:19:15;;;;;;;;;;;21.40;52.60;;;;;;1530229;77;767;-64
2023/02/03 02:21:24;;;;;;;;;;;21.50;52.80;;;;;;1540082;76;1127;-61
2023/02/03 02:23:34;;;;;;;;;;;21.50;52.80;;;;;;1532028;77;1662;-61
2023/02/03 02:25:37;;;;;;;;;;;21.40;52.70;;;;;;1538987;77;957;-60
2023/02/03 02:27:47;;;;;;;;;;;21.40;52.80;;;;;;1542840;76;1947;-60
2023/02/03 02:29:50;;;;;;;;;;;21.40;52.80;;;;;;1538457;77;1149;-61
2023/02/03 02:31:54;;;;;;;;;;;21.40;52.80;;;;;;1546712;76;1784;-62
2023/02/03 02:33:59;;;;;;;;;;;21.40;52.90;;;;;;1542587;76;1957;-61
2023/02/03 02:36:19;;;;;;;;;;;21.30;53.10;;;;;;1540105;77;736;-60
2023/02/03 02:38:38;;;;;;;;;;;21.30;53.10;;;;;;1536480;76;870;-60
2023/02/03 02:40:47;;;;;;;;;;;21.40;52.90;;;;;;1545242;76;1176;-61
2023/02/03 02:42:51;;;;;;;;;;;21.40;52.80;;;;;;1544858;76;1462;-61
2023/02/03 02:44:54;;;;;;;;;;;21.40;52.80;;;;;;1541890;77;749;-61
2023/02/03 02:47:01;;;;;;;;;;;21.50;52.80;;;;;;1542871;76;1941;-61
2023/02/03 02:49:13;;;;;;;;;;;21.50;52.90;;;;;;1540289;76;817;-60
2023/02/03 02:51:15;;;;;;;;;;;21.50;52.80;;;;;;1545069;76;1854;-61
2023/02/03 02:53:17;;;;;;;;;;;21.50;52.80;;;;;;1541423;77;888;-62
2023/02/03 02:55:24;;;;;;;;;;;21.40;52.70;;;;;;1540297;77;782;-61
2023/02/03 02:57:26;;;;;;;;;;;21.50;52.80;;;;;;1535413;76;940;-60
2023/02/03 02:59:28;;;;;;;;;;;21.50;52.80;;;;;;1541485;76;1152;-62
2023/02/03 03:01:30;;;;;;;;;;;21.50;52.70;;;;;;1539856;77;907;-60
2023/02/03 03:03:32;;;;;;;;;;;21.40;52.70;;;;;;1537923;77;723;-61
2023/02/03 03:05:34;;;;;;;;;;;21.40;52.70;;;;;;1541765;76;1562;-61
2023/02/03 03:07:48;;;;;;;;;;;21.40;52.80;;;;;;1538664;77;1952;-60
2023/02/03 03:09:51;;;;;;;;;;;21.40;52.80;;;;;;1541411;77;1141;-61
2023/02/03 03:11:54;;;;;;;;;;;21.40;52.80;;;;;;1540185;77;681;-60
2023/02/03 03:13:56;;;;;;;;;;;21.50;52.90;;;;;;1536209;77;762;-61
2023/02/03 03:15:57;;;;;;;;;;;21.40;52.70;;;;;;1540512;77;713;-62
2023/02/03 03:18:04;;;;;;;;;;;21.40;52.60;;;;;;1539554;76;718;-60
2023/02/03 03:20:07;;;;;;;;;;;21.40;52.50;;;;;;1538737;76;1584;-61
2023/02/03 03:22:10;;;;;;;;;;;21.40;52.60;;;;;;1543628;77;759;-60
2023/02/03 03:24:13;;;;;;;;;;;21.50;52.80;;;;;;1543721;76;735;-60
2023/02/03 03:26:23;;;;;;;;;;;21.40;52.70;;;;;;1542869;76;1951;-62
2023/02/03 03:28:27;;;;;;;;;;;21.40;53.10;;;;;;1537216;77;770;-61
2023/02/03 03:30:35;;;;;;;;;;;21.30;53.60;;;;;;1535255;77;1140;-61
2023/02/03 03:32:37;;;;;;;;;;;21.30;53.40;;;;;;1544071;77;1539;-61
2023/02/03 03:34:39;;;;;;;;;;;21.40;53.20;;;;;;1541595;77;737;-60
2023/02/03 03:36:45;;;;;;;;;;;21.40;53.10;;;;;;1542061;76;728;-65
2023/02/03 03:38:52;;;;;;;;;;;21.40;53.00;;;;;;1537008;76;1886;-60
2023/02/03 03:40:55;;;;;;;;;;;21.40;52.80;;;;;;1526731;76;1763;-61
2023/02/03 03:43:00;;;;;;;;;;;21.40;52.80;;;;;;1546706;76;713;-62
2023/02/03 03:45:20;;;;;;;;;;;21.50;52.80;;;;;;1540792;77;716;-60
2023/02/03 03:47:38;;;;;;;;;;;21.50;52.80;;;;;;1538477;76;1938;-60
2023/02/03 03:49:40;;;;;;;;;;;21.40;52.50;;;;;;1542743;76;1141;-61
2023/02/03 03:51:49;;;;;;;;;;;21.50;52.70;;;;;;1542283;76;781;-60
2023/02/03 03:53:51;;;;;;;;;;;21.40;52.50;;;;;;1545419;76;1807;-60
2023/02/03 03:55:53;;;;;;;;;;;21.50;52.60;;;;;;1541276;76;747;-61
2023/02/03 03:57:58;;;;;;;;;;;21.50;52.60;;;;;;1541603;76;743;-60
2023/02/03 04:00:00;;;;;;;;;;;21.40;52.40;;;;;;1542570;77;1141;-62
2023/02/03 04:02:03;;;;;;;;;;;21.50;52.50;;;;;;1543579;76;1552;-61
2023/02/03 04:04:05;;;;;;;;;;;21.50;52.50;;;;;;1544610;76;791;-60
2023/02/03 04:06:07;;;;;;;;;;;21.50;52.50;;;;;;1547169;77;723;-61
2023/02/03 04:08:09;;;;;;;;;;;21.50;52.50;;;;;;1543302;77;1935;-60
2023/02/03 04:10:16;;;;;;;;;;;21.40;52.40;;;;;;1542343;77;1138;-61
2023/02/03 04:12:19;;;;;;;;;;;21.40;52.50;;;;;;1541958;77;1970;-61
2023/02/03 04:14:21;;;;;;;;;;;21.30;52.50;;;;;;1539353;76;1816;-61
2023/02/03 04:16:23;;;;;;;;;;;21.40;52.50;;;;;;1538175;76;1480;-61
2023/02/03 04:18:25;;;;;;;;;;;21.50;52.60;;;;;;1545655;77;756;-61
2023/02/03 04:20:27;;;;;;;;;;;21.40;52.30;;;;;;1542799;77;1170;-62
2023/02/03 04:22:29;;;;;;;;;;;21.50;52.40;;;;;;1544639;76;755;-61
2023/02/03 04:24:31;;;;;;;;;;;21.50;52.40;;;;;;1541109;76;745;-61
2023/02/03 04:26:33;;;;;;;;;;;21.50;52.40;;;;;;1542729;77;1944;-61
2023/02/03 04:28:35;;;;;;;;;;;21.50;52.30;;;;;;1540492;77;732;-61
2023/02/03 04:30:37;;;;;;;;;;;21.50;52.40;;;;;;1539084;76;1549;-60
2023/02/03 04:32:38;;;;;;;;;;;21.40;52.30;;;;;;1540818;76;768;-60
2023/02/03 04:34:40;;;;;;;;;;;21.30;52.50;;;;;;1543212;77;818;-62
2023/02/03 04:36:42;;;;;;;;;;;21.30;52.60;;;;;;1538161;77;680;-63
2023/02/03 04:38:44;;;;;;;;;;;21.40;52.60;;;;;;1539479;77;661;-61
2023/02/03 04:40:46;;;;;;;;;;;21.30;52.50;;;;;;1548654;77;1145;-61
2023/02/03 04:42:48;;;;;;;;;;;21.40;52.50;;;;;;1538463;76;708;-61
2023/02/03 04:44:50;;;;;;;;;;;21.40;52.50;;;;;;1539725;76;731;-60
2023/02/03 04:46:52;;;;;;;;;;;21.40;52.50;;;;;;1538778;76;1939;-61
2023/02/03 04:48:53;;;;;;;;;;;21.40;52.40;;;;;;1530908;76;731;-62
2023/02/03 04:50:55;;;;;;;;;;;21.30;52.60;;;;;;1525740;77;1099;-60
2023/02/03 04:52:59;;;;;;;;;;;21.40;52.60;;;;;;1516278;78;1117;-61
2023/02/03 04:55:02;;;;;;;;;;;21.40;52.50;;;;;;1538043;77;710;-61
2023/02/03 04:57:04;;;;;;;;;;;21.40;52.50;;;;;;1530608;76;1450;-63
2023/02/03 04:59:06;;;;;;;;;;;21.50;52.60;;;;;;1530673;76;714;-61
2023/02/03 05:01:08;;;;;;;;;;;21.40;52.40;;;;;;1524859;77;1091;-61
2023/02/03 05:03:10;;;;;;;;;;;21.50;52.60;;;;;;1544782;76;766;-61
2023/02/03 05:05:12;;;;;;;;;;;21.40;52.50;;;;;;1543677;77;786;-60
2023/02/03 05:07:14;;;;;;;;;;;21.30;52.60;;;;;;1546237;77;1939;-60
2023/02/03 05:09:16;;;;;;;;;;;21.40;52.60;;;;;;1540679;77;622;-61
2023/02/03 05:11:18;;;;;;;;;;;21.30;52.60;;;;;;1543373;76;1558;-61
2023/02/03 05:13:20;;;;;;;;;;;21.30;52.60;;;;;;1544849;77;772;-61
2023/02/03 05:15:22;;;;;;;;;;;21.40;52.60;;;;;;1530607;76;799;-61
2023/02/03 05:17:24;;;;;;;;;;;21.40;52.60;;;;;;1529631;76;787;-60
2023/02/03 05:19:25;;;;;;;;;;;21.30;52.70;;;;;;1525400;76;1190;-61
2023/02/03 05:21:27;;;;;;;;;;;21.40;52.60;;;;;;1535469;77;733;-61
2023/02/03 05:23:29;;;;;;;;;;;21.30;52.60;;;;;;1547197;77;618;-62
2023/02/03 05:25:31;;;;;;;;;;;21.30;52.70;;;;;;1532926;76;1313;-60
2023/02/03 05:27:33;;;;;;;;;;;21.30;52.90;;;;;;1524595;76;1947;-62
2023/02/03 05:29:35;;;;;;;;;;;21.30;53.10;;;;;;1529394;77;1093;-60
2023/02/03 05:31:37;;;;;;;;;;;21.30;53.00;;;;;;1547964;76;686;-61
2023/02/03 05:33:38;;;;;;;;;;;21.30;52.90;;;;;;1531218;77;716;-61
2023/02/03 05:35:40;;;;;;;;;;;21.30;52.80;;;;;;1533274;77;706;-61
2023/02/03 05:37:45;;;;;;;;;;;21.30;52.80;;;;;;1538071;76;665;-61
2023/02/03 05:39:47;;;;;;;;;;;21.30;52.80;;;;;;1533575;76;1522;-60
2023/02/03 05:41:52;;;;;;;;;;;21.30;52.80;;;;;;1536040;76;718;-60
2023/02/03 05:43:54;;;;;;;;;;;21.30;52.90;;;;;;1542682;76;708;-62
2023/02/03 05:45:57;;;;;;;;;;;21.30;53.20;;;;;;1543804;76;804;-61
2023/02/03 05:48:01;;;;;;;;;;;21.20;53.40;;;;;;1548276;76;1937;-62
2023/02/03 05:50:03;;;;;;;;;;;21.20;53.20;;;;;;1541155;77;1965;-61
2023/02/03 05:52:05;;;;;;;;;;;21.10;53.40;;;;;;1543653;77;731;-61
2023/02/03 05:54:06;;;;;;;;;;;21.20;53.30;;;;;;1538773;77;1591;-61
2023/02/03 05:56:08;;;;;;;;;;;21.30;53.40;;;;;;1534155;77;859;-60
2023/02/03 05:58:10;;;;;;;;;;;21.30;53.20;;;;;;1541724;76;820;-60
2023/02/03 06:00:13;;;;;;;;;;;21.40;53.00;;;;;;1539005;77;1179;-60
2023/02/03 06:02:15;;;;;;;;;;;21.30;52.80;;;;;;1539663;77;817;-60
2023/02/03 06:04:17;;;;;;;;;;;21.40;52.70;;;;;;1537903;77;792;-61
2023/02/03 06:06:19;;;;;;;;;;;21.30;52.60;;;;;;1538258;76;733;-61
2023/02/03 06:08:21;;;;;;;;;;;21.30;52.60;;;;;;1531785;76;1917;-60
2023/02/03 06:10:23;;;;;;;;;;;21.30;52.50;;;;;;1529000;77;1094;-61
2023/02/03 06:12:25;;;;;;;;;;;21.30;52.40;;;;;;1537687;77;781;-61
2023/02/03 06:14:27;;;;;;;;;;;21.30;52.40;;;;;;1531585;77;758;-61
2023/02/03 06:16:29;;;;;;;;;;;21.30;52.30;;;;;;1524569;76;787;-61
2023/02/03 06:18:30;;;;;;;;;;;21.20;52.10;;;;;;1534784;77;778;-61
2023/02/03 06:20:32;;;;;;;;;;;21.30;52.20;;;;;;1545471;77;1185;-61
2023/02/03 06:22:34;;;;;;;;;;;21.30;52.20;;;;;;1543504;76;1499;-60
2023/02/03 06:24:36;;;;;;;;;;;21.20;51.80;;;;;;1544040;76;760;-61
2023/02/03 06:26:38;;;;;;;;;;;21.10;52.30;;;;;;1540526;77;704;-61
2023/02/03 06:28:40;;;;;;;;;;;21.10;51.80;;;;;;1537814;76;1948;-61
2023/02/03 06:30:42;;;;;;;;;;;21.10;51.40;;;;;;1538838;76;1118;-61
2023/02/03 06:32:44;;;;;;;;;;;21.20;50.60;;;;;;1540612;76;731;-60
2023/02/03 06:34:46;;;;;;;;;;;21.20;50.20;;;;;;1542133;76;795;-61
2023/02/03 06:36:48;;;;;;;;;;;21.20;49.70;;;;;;1540135;77;1518;-59
2023/02/03 06:38:49;;;;;;;;;;;21.20;49.40;;;;;;1502232;74;221199;-68
2023/02/03 06:40:51;;;;;;;;;;;21.20;49.20;;;;;;1497998;78;721;-64
2023/02/03 06:42:53;;;;;;;;;;;21.10;48.90;;;;;;1522733;77;729;-65
2023/02/03 06:44:55;;;;;;;;;;;21.10;48.50;;;;;;1496969;78;723;-66
2023/02/03 06:46:58;;;;;;;;;;;21.00;48.40;;;;;;1497791;78;746;-63
2023/02/03 06:48:59;;;;;;;;;;;21.10;48.30;;;;;;1495395;76;1949;-64
2023/02/03 06:51:02;;;;;;;;;;;21.00;48.20;;;;;;1489408;79;1522;-63
2023/02/03 06:53:03;;;;;;;;;;;20.90;48.20;;;;;;1494785;79;761;-66
2023/02/03 06:55:06;;;;;;;;;;;21.00;48.00;;;;;;1493159;79;738;-66
2023/02/03 06:57:07;;;;;;;;;;;20.90;47.80;;;;;;1522205;77;771;-68
2023/02/03 06:59:09;;;;;;;;;;;20.80;47.60;;;;;;1489281;79;1109;-67
2023/02/03 07:01:11;;;;;;;;;;;20.80;47.50;;;;;;1483244;78;680;-68
2023/02/03 07:03:13;;;;;;;;;;;20.80;47.50;;;;;;1480113;80;701;-68
2023/02/03 07:05:15;;;;;;;;;;;20.80;47.50;;;;;;1484346;78;1633;-68
2023/02/03 07:07:17;;;;;;;;;;;20.80;47.30;;;;;;1477141;79;1135;-67
2023/02/03 07:09:19;;;;;;;;;;;20.80;47.40;;;;;;1485956;78;1943;-67
2023/02/03 07:11:21;;;;;;;;;;;20.80;47.20;;;;;;1500465;77;714;-68
2023/02/03 07:13:22;;;;;;;;;;;20.80;47.10;;;;;;1505604;77;660;-68
2023/02/03 07:15:24;;;;;;;;;;;20.70;47.00;;;;;;1508987;77;702;-67
2023/02/03 07:17:26;;;;;;;;;;;20.70;46.50;;;;;;1511461;78;1193;-67
2023/02/03 07:19:28;;;;;;;;;;;20.70;47.00;;;;;;1497522;78;1611;-68
2023/02/03 07:21:30;;;;;;;;;;;20.70;47.00;;;;;;1505291;78;784;-68
2023/02/03 07:23:32;;;;;;;;;;;20.70;46.50;;;;;;1491874;79;797;-67
2023/02/03 07:25:34;;;;;;;;;;;20.60;46.60;;;;;;1493713;79;715;-68
2023/02/03 07:27:36;;;;;;;;;;;20.70;46.50;;;;;;1491261;78;1949;-68
2023/02/03 07:29:38;;;;;;;;;;;20.60;46.50;;;;;;1496335;79;721;-67
2023/02/03 07:31:40;;;;;;;;;;;20.60;46.40;;;;;;1492513;79;1477;-68
2023/02/03 07:33:42;;;;;;;;;;;20.70;46.30;;;;;;1508644;78;717;-68
2023/02/03 07:35:43;;;;;;;;;;;20.70;46.20;;;;;;1506554;78;740;-68
2023/02/03 07:37:45;;;;;;;;;;;20.60;46.00;;;;;;1486183;78;1130;-68
2023/02/03 07:39:47;;;;;;;;;;;20.60;45.90;;;;;;1489209;79;807;-68
2023/02/03 07:41:49;;;;;;;;;;;20.60;46.00;;;;;;1502517;79;722;-67
2023/02/03 07:43:51;;;;;;;;;;;20.60;46.00;;;;;;1499088;79;718;-67
2023/02/03 07:45:53;;;;;;;;;;;20.60;45.80;;;;;;1498108;79;1474;-68
2023/02/03 07:47:55;;;;;;;;;;;20.60;45.60;;;;;;1498596;78;1939;-68
2023/02/03 07:49:56;;;;;;;;;;;20.60;45.40;;;;;;1498432;79;755;-69
2023/02/03 07:51:58;;;;;;;;;;;20.50;45.50;;;;;;1494568;77;805;-67
2023/02/03 07:54:00;;;;;;;;;;;20.50;45.50;;;;;;1495925;79;724;-67
2023/02/03 07:56:02;;;;;;;;;;;20.50;45.50;;;;;;1497496;79;718;-67
2023/02/03 07:58:04;;;;;;;;;;;20.50;45.30;;;;;;1492318;78;1151;-69
2023/02/03 08:00:07;;;;;;;;;;;20.50;45.60;;;;;;1497423;79;1541;-68
2023/02/03 08:02:10;;;;;;;;;;;20.40;45.00;;;;;;1503282;79;715;-69
2023/02/03 08:04:15;;;;;;;;;;;20.20;45.70;;;;;;1499688;79;743;-68
2023/02/03 08:06:15;;;;;;;;;;;20.20;45.50;;;;;;1503182;77;940;-67
2023/02/03 08:08:17;;;;;;;;;;;20.10;46.60;;;;;;1499383;78;1954;-69
2023/02/03 08:10:19;;;;;;;;;;;20.20;46.30;;;;;;1498837;79;712;-65
2023/02/03 08:12:21;;;;;;;;;;;20.30;45.50;;;;;;1492627;79;692;-68
2023/02/03 08:14:23;;;;;;;;;;;20.20;45.20;;;;;;1494861;79;1499;-69
2023/02/03 08:16:25;;;;;;;;;;;20.30;45.50;;;;;;1494320;79;722;-68
2023/02/03 08:18:26;;;;;;;;;;;20.20;45.60;;;;;;1492175;78;1135;-66
2023/02/03 08:20:28;;;;;;;;;;;20.20;45.20;;;;;;1491475;77;776;-66
2023/02/03 08:22:30;;;;;;;;;;;20.20;44.30;;;;;;1494911;79;728;-70
2023/02/03 08:24:32;;;;;;;;;;;20.20;44.30;;;;;;1493542;79;709;-64
2023/02/03 08:26:35;;;;;;;;;;;20.20;44.80;;;;;;1490718;79;773;-67
2023/02/03 08:28:37;;;;;;;;;;;20.20;45.00;;;;;;1495604;78;1980;-67
2023/02/03 08:30:39;;;;;;;;;;;20.30;45.20;;;;;;1488667;79;693;-68
2023/02/03 08:32:41;;;;;;;;;;;20.30;45.20;;;;;;1495659;79;800;-68
2023/02/03 08:34:43;;;;;;;;;;;20.30;45.30;;;;;;1497829;79;667;-69
2023/02/03 08:36:45;;;;;;;;;;;20.30;45.40;;;;;;1496830;79;625;-70
2023/02/03 08:38:46;;;;;;;;;;;20.30;45.60;;;;;;1500009;78;1235;-71
2023/02/03 08:40:48;;;;;;;;;;;20.30;45.70;;;;;;1497509;79;685;-70
2023/02/03 08:42:50;;;;;;;;;;;20.30;45.70;;;;;;1496687;79;722;-70
2023/02/03 08:44:52;;;;;;;;;;;20.30;45.80;;;;;;1500104;79;762;-68
2023/02/03 08:46:54;;;;;;;;;;;20.30;46.00;;;;;;1496407;79;687;-68
2023/02/03 08:48:56;;;;;;;;;;;20.30;46.00;;;;;;1494112;78;1948;-69
2023/02/03 08:50:58;;;;;;;;;;;20.30;46.20;;;;;;1494873;79;802;-68
2023/02/03 08:53:00;;;;;;;;;;;20.40;46.30;;;;;;1493994;79;753;-68
2023/02/03 08:55:02;;;;;;;;;;;20.30;46.30;;;;;;1499262;79;759;-70
2023/02/03 08:57:03;;;;;;;;;;;20.30;46.40;;;;;;1499790;79;838;-68
2023/02/03 08:59:05;;;;;;;;;;;20.30;46.50;;;;;;1497008;78;1029;-69
2023/02/03 09:01:11;;;;;;;;;;;20.30;46.50;;;;;;1494919;79;728;-68
2023/02/03 09:03:13;;;;;;;;;;;20.30;46.60;;;;;;1500801;77;788;-69
2023/02/03 09:05:17;;;;;;;;;;;20.30;46.70;;;;;;1495831;79;727;-70
2023/02/03 09:07:18;;;;;;;;;;;20.40;46.80;;;;;;1510126;76;2318;-69
2023/02/03 09:09:20;;;;;;;;;;;20.40;46.90;;;;;;1486738;78;1942;-68
2023/02/03 09:11:22;;;;;;;;;;;20.40;47.00;;;;;;1477275;79;716;-69
2023/02/03 09:13:24;;;;;;;;;;;20.40;47.00;;;;;;1477731;78;736;-68
2023/02/03 09:15:26;;;;;;;;;;;20.40;47.10;;;;;;1482260;78;772;-70
2023/02/03 09:17:28;;;;;;;;;;;20.40;47.10;;;;;;1485607;78;1127;-68
2023/02/03 09:19:30;;;;;;;;;;;20.30;47.20;;;;;;1529233;77;657;-70
2023/02/03 09:21:33;;;;;;;;;;;20.40;47.30;;;;;;1526601;77;803;-69
2023/02/03 09:23:34;;;;;;;;;;;20.30;47.30;;;;;;1532173;77;788;-69
2023/02/03 09:25:36;;;;;;;;;;;20.40;47.40;;;;;;1526498;77;781;-69
2023/02/03 09:27:38;;;;;;;;;;;20.40;47.40;;;;;;1516386;77;1148;-71
2023/02/03 09:29:40;;;;;;;;;;;20.40;47.50;;;;;;1516120;77;1948;-69
2023/02/03 09:31:42;;;;;;;;;;;20.40;47.60;;;;;;1496067;78;794;-68
2023/02/03 09:33:44;;;;;;;;;;;20.40;47.60;;;;;;1495993;78;804;-69
2023/02/03 09:35:52;;;;;;;;;;;20.40;47.60;;;;;;1485537;79;707;-68
2023/02/03 09:37:54;;;;;;;;;;;20.40;47.60;;;;;;1493922;78;1138;-68
2023/02/03 09:39:57;;;;;;;;;;;20.40;47.70;;;;;;1494156;79;779;-68
2023/02/03 09:42:04;;;;;;;;;;;20.50;47.80;;;;;;1492406;79;746;-68
2023/02/03 09:44:07;;;;;;;;;;;20.50;47.90;;;;;;1495507;79;686;-67
2023/02/03 09:46:12;;;;;;;;;;;20.40;47.80;;;;;;1492303;79;748;-68
2023/02/03 09:48:15;;;;;;;;;;;20.50;47.90;;;;;;1498596;78;1138;-69
2023/02/03 09:50:22;;;;;;;;;;;20.40;47.90;;;;;;1497381;79;1942;-68
2023/02/03 09:52:24;;;;;;;;;;;20.40;48.00;;;;;;1492654;79;1015;-68
2023/02/03 09:54:28;;;;;;;;;;;20.50;48.00;;;;;;1490849;79;621;-68
2023/02/03 09:56:31;;;;;;;;;;;20.40;48.00;;;;;;1484607;79;1654;-68
2023/02/03 09:58:33;;;;;;;;;;;20.50;48.10;;;;;;1507600;77;1150;-69
2023/02/03 10:00:36;;;;;;;;;;;20.50;48.10;;;;;;1477358;79;728;-68
2023/02/03 10:02:42;;;;;;;;;;;20.50;48.20;;;;;;1479579;78;1739;-68
2023/02/03 10:04:46;;;;;;;;;;;20.50;48.10;;;;;;1472405;79;619;-68
2023/02/03 10:06:48;;;;;;;;;;;20.50;48.20;;;;;;1492851;78;1252;-70
2023/02/03 10:08:52;;;;;;;;;;;20.50;48.20;;;;;;1487033;78;1950;-70
2023/02/03 10:11:08;;;;;;;;;;;20.50;48.20;;;;;;1498634;79;711;-67
2023/02/03 10:13:00;;;;;;;;;;;20.50;48.30;;;;;;1489872;79;1843;-68
2023/02/03 10:15:07;;;;;;;;;;;20.50;48.30;;;;;;1498556;79;716;-69
2023/02/03 10:17:16;;;;;;;;;;;20.50;48.30;;;;;;1495024;77;764;-70
2023/02/03 10:19:19;;;;;;;;;;;20.50;48.40;;;;;;1497146;79;1462;-68
2023/02/03 10:21:26;;;;;;;;;;;20.40;48.30;;;;;;1494645;79;763;-71
2023/02/03 10:23:35;;;;;;;;;;;20.50;48.40;;;;;;1494250;79;1052;-68
2023/02/03 10:25:41;;;;;;;;;;;20.40;48.40;;;;;;1490755;79;1374;-68
2023/02/03 10:27:42;;;;;;;;;;;20.40;48.50;;;;;;1498473;78;1140;-68
2023/02/03 10:29:44;;;;;;;;;;;20.40;48.50;;;;;;1494363;79;1939;-68
2023/02/03 10:31:47;;;;;;;;;;;20.50;48.60;;;;;;1489647;77;805;-68
2023/02/03 10:33:50;;;;;;;;;;;20.50;48.50;;;;;;1492426;79;656;-67
2023/02/03 10:35:55;;;;;;;;;;;20.50;48.60;;;;;;1499325;79;1827;-67
2023/02/03 10:37:57;;;;;;;;;;;20.40;48.50;;;;;;1490507;78;1592;-67
2023/02/03 10:39:59;;;;;;;;;;;20.50;48.60;;;;;;1496245;78;815;-68
2023/02/03 10:42:01;;;;;;;;;;;20.50;48.60;;;;;;1498859;79;724;-67
2023/02/03 10:44:04;;;;;;;;;;;20.50;48.60;;;;;;1498061;78;715;-68
2023/02/03 10:46:06;;;;;;;;;;;20.50;48.60;;;;;;1502815;77;740;-69
2023/02/03 10:48:10;;;;;;;;;;;20.50;48.60;;;;;;1489395;78;1195;-67
2023/02/03 10:50:15;;;;;;;;;;;20.50;48.60;;;;;;1495835;79;1925;-67
2023/02/03 10:52:27;;;;;;;;;;;20.50;48.60;;;;;;1492264;79;709;-68
2023/02/03 10:54:33;;;;;;;;;;;20.50;48.50;;;;;;1492004;79;709;-68
2023/02/03 10:56:36;;;;;;;;;;;20.50;48.60;;;;;;1499882;79;724;-68
2023/02/03 10:58:38;;;;;;;;;;;20.50;48.60;;;;;;1490048;78;1147;-67
2023/02/03 11:00:40;;;;;;;;;;;20.40;48.60;;;;;;1496743;77;684;-67
2023/02/03 11:02:42;;;;;;;;;;;20.50;48.60;;;;;;1500030;79;808;-67
2023/02/03 11:04:43;;;;;;;;;;;20.50;48.70;;;;;;1500931;79;727;-66
2023/02/03 11:06:47;;;;;;;;;;;20.50;48.70;;;;;;1500134;79;822;-68
2023/02/03 11:08:49;;;;;;;;;;;20.50;48.70;;;;;;1499276;78;1084;-68
2023/02/03 11:10:51;;;;;;;;;;;20.50;48.80;;;;;;1501753;79;1931;-67
2023/02/03 11:13:13;;;;;;;;;;;20.50;48.80;;;;;;1481983;79;1176;-68
2023/02/03 11:15:15;;;;;;;;;;;20.50;48.70;;;;;;1496328;77;570;-66
2023/02/03 11:17:18;;;;;;;;;;;20.50;48.80;;;;;;1499272;78;1135;-63
2023/02/03 11:19:20;;;;;;;;;;;20.50;48.80;;;;;;1492954;79;780;-64
2023/02/03 11:21:23;;;;;;;;;;;20.50;48.90;;;;;;1495863;79;1513;-66
2023/02/03 11:23:25;;;;;;;;;;;20.40;48.90;;;;;;1494930;79;767;-63
2023/02/03 11:25:28;;;;;;;;;;;20.50;49.10;;;;;;1492860;79;719;-63
2023/02/03 11:27:35;;;;;;;;;;;20.50;49.20;;;;;;1492378;79;1184;-67
2023/02/03 11:29:35;;;;;;;;;;;20.40;49.20;;;;;;1493253;77;1921;-67
2023/02/03 11:31:37;;;;;;;;;;;20.50;49.30;;;;;;1496565;79;712;-65
2023/02/03 11:33:39;;;;;;;;;;;20.30;49.30;;;;;;1489280;79;589;-65
2023/02/03 11:35:41;;;;;;;;;;;20.50;49.40;;;;;;1495139;79;810;-69
2023/02/03 11:37:44;;;;;;;;;;;20.50;49.40;;;;;;1486229;78;1252;-65
2023/02/03 11:39:46;;;;;;;;;;;20.50;49.40;;;;;;1497574;79;1939;-63
2023/02/03 11:41:48;;;;;;;;;;;20.50;49.30;;;;;;1497363;79;801;-66
2023/02/03 11:43:51;;;;;;;;;;;20.50;49.30;;;;;;1498819;77;680;-65
2023/02/03 11:45:53;;;;;;;;;;;20.60;49.20;;;;;;1474708;80;1270;-65
2023/02/03 11:48:05;;;;;;;;;;;20.60;49.20;;;;;;1501209;78;1203;-65
2023/02/03 11:50:15;;;;;;;;;;;20.60;49.20;;;;;;1497734;79;1907;-65
2023/02/03 11:52:24;;;;;;;;;;;20.60;49.20;;;;;;1493128;79;719;-66
2023/02/03 11:54:34;;;;;;;;;;;20.60;49.10;;;;;;1494278;79;724;-67
2023/02/03 11:56:50;;;;;;;;;;;20.60;49.10;;;;;;1494587;79;1637;-65
2023/02/03 11:59:02;;;;;;;;;;;20.60;49.10;;;;;;1499328;77;1798;-65
2023/02/03 12:01:06;;;;;;;;;;;20.60;49.10;;;;;;1486368;79;752;-68
2023/02/03 12:03:27;;;;;;;;;;;20.60;49.10;;;;;;1496078;79;1833;-66
2023/02/03 12:05:37;;;;;;;;;;;20.60;49.20;;;;;;1485841;79;692;-69
2023/02/03 12:07:49;;;;;;;;;;;20.60;49.10;;;;;;1491676;78;1888;-65
2023/02/03 12:10:09;;;;;;;;;;;20.60;49.10;;;;;;1501526;79;1918;-65
2023/02/03 12:12:31;;;;;;;;;;;20.60;49.20;;;;;;1500462;79;582;-66
2023/02/03 12:14:46;;;;;;;;;;;20.60;49.10;;;;;;1492701;79;2045;-65
2023/02/03 12:17:06;;;;;;;;;;;20.60;49.20;;;;;;1485627;79;1570;-67